nws-alerts: Checking more than four warning/county codes can delay the loading of your pages. You should use a cron job to get the data.

Nearby METAR Reports

 

KOXC - Oxford/Waterbury, Connecticut, USA
Distance from station: NW 7mi, 11km
Updated: 08/03/2021 4:51pm
Clear
Clear
 Wind from calm
Wind: Calm
Temperature: 72°F , 22°C
Dew Point: 54°F , 12°C
Humidity: 53%
Barometer: 30.11 inHg , 1019.6 hPa
Clouds: Clear
Visibility: 10 miles , 16 km
2021/08/03 20:51 KOXC 032051Z 00000KT 10SM CLR 22/12 A3011 RMK AO2 SLP205 T02220117 56013
KHVN - New Haven/Tweed, Connecticut, USA
Distance from station: SE 13mi, 20km
Updated: 08/03/2021 4:53pm
Overcast
Overcast
 Wind from S
Wind: S 5 mph , 7 km/h
Temperature: 75°F , 24°C
Dew Point: 55°F , 13°C
Humidity: 50%
Barometer: 30.08 inHg , 1018.6 hPa
Clouds: Overcast
Visibility: 10 miles , 16 km
Cloud details: Overcast 25000 ft
2021/08/03 20:53 KHVN 032053Z 19004KT 10SM OVC250 24/13 A3008 RMK AO2 SLP187 T02390133 56012
 
KMMK - Meriden, Connecticut, USA
Distance from station: NE 13mi, 21km
Updated: 08/03/2021 4:53pm
Clear
Clear
 Wind from W
Wind: W 3 mph , 6 km/h
Temperature: 75°F , 24°C
Dew Point: 46°F , 8°C
Humidity: 36%
Barometer: 30.08 inHg , 1018.6 hPa
Clouds: Clear
Visibility: 10 miles , 16 km
2021/08/03 20:53 KMMK 032053Z AUTO 26003KT 10SM CLR 24/08 A3008 RMK AO2 SLP183 T02390083 56013
KBDR - Bridgeport, Connecticut, USA
Distance from station: SSW 17mi, 27km
Updated: 08/03/2021 4:52pm
Clear
Clear
 Wind from S
Wind: S 6 mph , 9 km/h
Temperature: 75°F , 24°C
Dew Point: 57°F , 14°C
Humidity: 54%
Barometer: 30.08 inHg , 1018.6 hPa
Clouds: Clear
Visibility: 10 miles , 16 km
2021/08/03 20:52 KBDR 032052Z 19005KT 10SM CLR 24/14 A3008 RMK AO2 SLP187 T02390139 56012
 
KDXR - Danbury, Connecticut, USA
Distance from station: W 23mi, 38km
Updated: 08/03/2021 4:53pm
Clear
Clear
 Wind from varies
Wind: varies 3 mph , 6 km/h
Temperature: 75°F , 24°C
Dew Point: 52°F , 11°C
Humidity: 44%
Barometer: 30.10 inHg , 1019.3 hPa
Clouds: Clear
Visibility: 10 miles , 16 km
2021/08/03 20:53 KDXR 032053Z VRB03KT 10SM CLR 24/11 A3010 RMK AO2 SLP191 T02440106 56012